Time;durP1;ratioP1;P1;durP2;ratioP2;P2;SDS_P1;SDS_P2;PMS_P1;PMS_P2;Temp;Humidity;BMP_temperature;BMP_pressure;BME280_temperature;BME280_humidity;BME280_pressure;Samples;Min_cycle;Max_cycle;Signal;HPM_P1;HPM_P2
2022/01/18 00:00:29;;;;;;;4.10;1.63;;;;;;;0.41;92.91;97988.34;1714379;82;21102;-83
2022/01/18 00:02:58;;;;;;;2.03;1.77;;;;;;;0.37;94.05;97985.86;1703962;82;21121;-84
2022/01/18 00:05:26;;;;;;;1.50;1.40;;;;;;;0.32;94.95;97973.33;1730916;82;20994;-80
2022/01/18 00:07:52;;;;;;;2.90;1.60;;;;;;;0.31;95.59;97973.03;1732900;81;21172;-80
2022/01/18 00:10:21;;;;;;;2.57;2.00;;;;;;;0.30;96.10;97966.63;1707492;83;21058;-79
2022/01/18 00:18:07;;;;;;;1.80;1.63;;;;;;;0.27;97.54;97970.55;1706845;82;21006;-80
2022/01/18 00:23:17;;;;;;;2.62;1.62;;;;;;;0.24;98.56;97976.27;1744766;81;21034;-80
2022/01/18 00:25:47;;;;;;;1.50;1.40;;;;;;;0.22;98.98;97995.53;1737115;81;21010;-74
2022/01/18 00:28:12;;;;;;;1.43;1.33;;;;;;;0.21;99.14;98032.23;1730533;81;21680;-77
2022/01/18 00:33:18;;;;;;;1.43;1.33;;;;;;;0.22;99.09;98005.30;1752812;80;21195;-75
2022/01/18 00:35:42;;;;;;;2.37;1.33;;;;;;;0.20;98.81;98131.06;1741080;82;21541;-75
2022/01/18 00:38:16;;;;;;;1.00;1.00;;;;;;;0.17;99.42;98085.27;1749792;81;21071;-75
2022/01/18 00:40:35;;;;;;;1.30;1.20;;;;;;;0.15;100.00;98111.09;1757239;81;21520;-83
2022/01/18 00:43:02;;;;;;;2.03;1.30;;;;;;;0.04;99.88;98046.30;1761400;81;21078;-81
2022/01/18 00:45:29;;;;;;;1.30;1.20;;;;;;;-0.04;100.00;98094.45;1727649;82;21395;-81
2022/01/18 00:47:56;;;;;;;1.20;1.00;;;;;;;-0.18;100.00;98115.44;1737622;81;21126;-80
2022/01/18 00:50:22;;;;;;;3.47;1.10;;;;;;;-0.27;100.00;98111.48;1733379;81;20994;-71
2022/01/18 00:52:52;;;;;;;2.30;1.10;;;;;;;-0.42;100.00;98151.13;1721276;81;21111;-83
2022/01/18 00:55:17;;;;;;;0.87;0.87;;;;;;;-0.68;100.00;98170.16;1734517;82;21053;-83
2022/01/18 00:57:43;;;;;;;1.20;1.10;;;;;;;-0.82;100.00;98131.70;1718145;82;21548;-82
2022/01/18 01:00:11;;;;;;;1.00;1.00;;;;;;;-0.98;99.31;98161.23;1743951;81;21103;-83
2022/01/18 01:02:38;;;;;;;1.13;1.07;;;;;;;-0.99;100.00;98186.81;1759928;81;20928;-88
2022/01/18 01:05:05;;;;;;;1.70;1.60;;;;;;;-0.99;98.67;98147.23;1751545;81;21066;-81
2022/01/18 01:07:32;;;;;;;2.20;1.37;;;;;;;-1.16;95.23;98150.10;1714913;82;21624;-80
2022/01/18 01:09:58;;;;;;;2.00;1.53;;;;;;;-1.15;94.02;98156.19;1730062;82;21086;-78
2022/01/18 01:12:26;;;;;;;5.60;1.53;;;;;;;-1.10;92.33;98180.06;1733276;81;21221;-75
2022/01/18 01:14:57;;;;;;;1.60;1.50;;;;;;;-1.08;90.15;98185.45;1729963;83;20971;-77
2022/01/18 01:37:11;;;;;;;1.10;1.10;;;;;;;-1.06;77.57;98249.88;1754406;81;21627;-74
2022/01/18 01:41:50;;;;;;;1.53;1.10;;;;;;;-1.09;77.57;98241.05;1726093;82;21627;-82
2022/01/18 01:44:22;;;;;;;1.20;1.20;;;;;;;-1.15;77.62;98259.05;1733840;81;21079;-83
2022/01/18 01:46:41;;;;;;;1.37;1.27;;;;;;;-1.14;75.70;98291.79;1758955;81;21051;-78
2022/01/18 01:49:12;;;;;;;1.90;1.20;;;;;;;-1.11;74.02;98285.30;1761332;81;21724;-82
2022/01/18 01:51:37;;;;;;;1.93;1.20;;;;;;;-1.12;73.24;98287.64;1761127;81;20991;-78
2022/01/18 01:54:07;;;;;;;1.90;1.33;;;;;;;-1.16;72.43;98305.72;1707713;81;20983;-80
2022/01/18 01:56:34;;;;;;;4.07;1.50;;;;;;;-1.24;69.96;98332.30;1729995;81;21047;-77
2022/01/18 01:59:00;;;;;;;1.40;1.30;;;;;;;-1.22;70.60;98262.22;1729159;83;21058;-77
2022/01/18 02:01:26;;;;;;;0.90;0.90;;;;;;;-1.24;70.15;98408.78;1753374;80;21789;-78
2022/01/18 02:03:53;;;;;;;2.20;1.20;;;;;;;-1.23;70.64;98323.87;1729052;83;21004;-75
2022/01/18 02:06:21;;;;;;;2.87;1.13;;;;;;;-1.26;70.90;98314.57;1757655;80;21075;-81
2022/01/18 02:08:48;;;;;;;1.67;1.20;;;;;;;-1.26;71.96;98319.03;1729139;81;21088;-80
2022/01/18 02:11:14;;;;;;;1.43;1.10;;;;;;;-1.29;72.82;98337.38;1730761;82;21348;-82
2022/01/18 02:13:41;;;;;;;1.20;1.20;;;;;;;-1.28;73.42;98321.87;1751567;81;21109;-84
2022/01/18 02:24:07;;;;;;;0.90;0.90;;;;;;;-1.35;75.43;98393.61;1768706;80;21002;-81
2022/01/18 02:26:34;;;;;;;1.00;1.00;;;;;;;-1.42;75.42;98342.19;1765758;80;21838;-84
2022/01/18 02:29:02;;;;;;;1.30;1.20;;;;;;;-1.44;74.06;98380.34;1708858;82;21272;-77
2022/01/18 02:31:28;;;;;;;1.10;1.10;;;;;;;-1.52;72.28;98373.44;1743720;82;21053;-75
2022/01/18 02:34:11;;;;;;;1.10;1.10;;;;;;;-1.56;71.42;98389.87;1733577;82;21107;-72
2022/01/18 02:36:37;;;;;;;4.97;1.20;;;;;;;-1.58;71.32;98367.66;1730352;81;21059;-73
2022/01/18 02:39:04;;;;;;;1.27;1.27;;;;;;;-1.64;70.21;98431.75;1701632;84;21534;-75
2022/01/18 02:41:32;;;;;;;1.63;1.10;;;;;;;-1.66;70.05;98390.78;1701454;84;21053;-74
2022/01/18 02:44:09;;;;;;;3.10;1.10;;;;;;;-1.77;68.87;98438.31;1652587;84;20966;-75
2022/01/18 02:46:38;;;;;;;4.43;1.30;;;;;;;-1.82;69.04;98435.47;1721821;81;21080;-77
2022/01/18 02:49:05;;;;;;;2.27;1.20;;;;;;;-1.92;69.37;98446.94;1749646;80;21539;-72
2022/01/18 02:51:33;;;;;;;1.03;1.03;;;;;;;-1.93;69.56;98430.31;1674184;82;21075;-75
2022/01/18 02:54:09;;;;;;;1.57;1.50;;;;;;;-1.93;69.27;98459.29;1703821;82;21080;-74
2022/01/18 02:56:56;;;;;;;0.90;0.90;;;;;;;-2.03;69.34;98450.15;1754272;81;21543;-76
2022/01/18 02:59:38;;;;;;;1.43;1.30;;;;;;;-2.12;67.54;98419.24;1715635;82;21041;-78
2022/01/18 03:04:50;;;;;;;1.53;1.37;;;;;;;-2.26;65.68;98457.09;1704915;82;21876;-84
2022/01/18 03:07:18;;;;;;;1.27;1.20;;;;;;;-2.28;65.02;98466.99;1742308;81;21529;-78
2022/01/18 03:09:44;;;;;;;1.57;1.47;;;;;;;-2.28;64.44;98473.08;1730942;81;20973;-78
2022/01/18 03:12:11;;;;;;;1.53;1.43;;;;;;;-2.29;64.51;98474.08;1702363;82;21675;-75
2022/01/18 03:14:38;;;;;;;1.67;1.30;;;;;;;-2.31;64.14;98513.47;1702127;83;21019;-73
2022/01/18 03:17:06;;;;;;;1.50;1.40;;;;;;;-2.38;66.00;98525.28;1726261;83;21080;-74
2022/01/18 03:19:34;;;;;;;1.53;1.37;;;;;;;-2.47;65.15;98496.69;1739238;81;21125;-74
2022/01/18 03:22:00;;;;;;;4.00;1.50;;;;;;;-2.52;64.45;98491.20;1762353;80;20915;-74
2022/01/18 03:29:38;;;;;;;1.40;1.30;;;;;;;-2.51;63.08;98493.64;1712714;81;21156;-75
2022/01/18 03:32:07;;;;;;;1.70;1.60;;;;;;;-2.51;62.41;98517.33;1683964;82;20972;-77
2022/01/18 03:34:34;;;;;;;1.27;1.27;;;;;;;-2.51;62.56;98529.17;1698513;83;21351;-74
2022/01/18 03:37:01;;;;;;;1.43;1.33;;;;;;;-2.56;61.36;98459.20;1720822;83;21016;-72
2022/01/18 03:39:28;;;;;;;6.33;1.67;;;;;;;-2.57;62.34;98531.76;1730512;83;21042;-73
2022/01/18 03:42:00;;;;;;;1.93;1.30;;;;;;;-2.62;62.47;98538.10;1732592;81;21146;-72
2022/01/18 03:44:25;;;;;;;2.47;1.30;;;;;;;-2.68;62.59;98532.61;1748232;81;21035;-75
2022/01/18 03:46:53;;;;;;;1.60;1.60;;;;;;;-2.68;63.17;98537.05;1760760;81;21046;-73
2022/01/18 03:49:23;;;;;;;1.60;1.50;;;;;;;-2.74;62.98;98563.66;1708679;82;21026;-74
2022/01/18 03:51:48;;;;;;;1.13;1.10;;;;;;;-2.73;63.48;98572.34;1704292;82;21478;-69
2022/01/18 03:54:21;;;;;;;1.30;1.20;;;;;;;-2.77;63.48;98558.77;1732124;81;21159;-73
2022/01/18 03:56:42;;;;;;;2.33;1.60;;;;;;;-2.80;63.73;98572.31;1715611;83;22261;-74
2022/01/18 03:59:09;;;;;;;3.77;1.80;;;;;;;-2.87;68.70;98578.52;1709740;82;21043;-73
2022/01/18 04:01:35;;;;;;;1.53;1.43;;;;;;;-2.95;68.40;98561.57;1705249;84;21083;-73
2022/01/18 04:04:02;;;;;;;1.30;1.23;;;;;;;-2.96;69.09;98576.53;1757987;80;21529;-74
2022/01/18 04:06:28;;;;;;;3.00;1.50;;;;;;;-2.95;67.64;98586.06;1730431;82;21521;-72
2022/01/18 04:08:54;;;;;;;1.87;1.60;;;;;;;-2.91;67.08;98591.24;1729915;81;20987;-74
2022/01/18 04:11:21;;;;;;;1.30;1.30;;;;;;;-2.89;66.48;98612.92;1729209;83;21058;-73
2022/01/18 04:13:48;;;;;;;1.50;1.40;;;;;;;-2.87;66.62;98601.69;1717410;81;20992;-73
2022/01/18 04:16:15;;;;;;;1.83;1.73;;;;;;;-2.88;66.75;98656.64;1760992;81;21039;-74
2022/01/18 04:18:58;;;;;;;1.37;1.30;;;;;;;-2.86;66.84;98619.11;1758502;81;21131;-73
2022/01/18 04:26:56;;;;;;;1.33;1.33;;;;;;;-2.82;63.89;98622.16;1738262;81;21027;-72
2022/01/18 04:29:21;;;;;;;1.67;1.43;;;;;;;-2.77;63.79;98636.87;1716213;83;21024;-72
2022/01/18 04:31:47;;;;;;;1.50;1.40;;;;;;;-2.75;64.21;98634.88;1729013;83;22702;-72
2022/01/18 04:34:13;;;;;;;1.30;1.30;;;;;;;-2.76;63.71;98685.86;1731121;81;22403;-70
2022/01/18 04:36:40;;;;;;;1.53;1.40;;;;;;;-2.75;63.11;98648.03;1709561;83;21055;-70
2022/01/18 04:39:06;;;;;;;1.90;1.30;;;;;;;-2.71;63.48;98665.88;1720684;82;21023;-72
2022/01/18 04:41:35;;;;;;;1.60;1.50;;;;;;;-2.70;62.35;98717.51;1696457;83;21101;-70
2022/01/18 04:49:14;;;;;;;1.67;1.43;;;;;;;-2.67;62.35;98708.41;1717503;82;21170;-76
2022/01/18 04:51:41;;;;;;;1.50;1.40;;;;;;;-2.65;62.55;98690.63;1717374;83;21049;-72
2022/01/18 04:54:10;;;;;;;1.80;1.33;;;;;;;-2.66;62.50;98689.81;1717345;82;21096;-72
2022/01/18 04:59:07;;;;;;;1.80;1.70;;;;;;;-2.66;62.81;98721.38;1717369;82;21013;-73
2022/01/18 05:01:35;;;;;;;1.70;1.60;;;;;;;-2.69;62.87;98715.20;1717671;83;20973;-69
2022/01/18 05:04:01;;;;;;;1.43;1.33;;;;;;;-2.70;63.33;98745.63;1717535;83;21032;-70
2022/01/18 05:06:27;;;;;;;4.83;2.50;;;;;;;-2.69;63.50;98775.72;1650693;84;21055;-71
2022/01/18 05:08:56;;;;;;;1.63;1.60;;;;;;;-2.69;62.94;98745.95;1706949;82;21155;-73
2022/01/18 05:11:26;;;;;;;1.63;1.50;;;;;;;-2.68;63.21;98762.84;1701519;84;20986;-74
2022/01/18 05:14:05;;;;;;;1.67;1.57;;;;;;;-2.66;62.88;98754.77;1701744;84;21050;-72
2022/01/18 05:16:43;;;;;;;1.80;1.70;;;;;;;-2.66;62.40;98795.56;1658578;85;21095;-73
2022/01/18 05:21:27;;;;;;;1.97;1.77;;;;;;;-2.69;62.34;98772.27;1698139;84;21359;-71
2022/01/18 05:23:50;;;;;;;2.23;1.40;;;;;;;-2.71;62.30;98782.16;1689540;83;21520;-74
2022/01/18 05:26:16;;;;;;;4.97;1.53;;;;;;;-2.73;61.11;98794.67;1671745;85;21161;-71
2022/01/18 05:28:42;;;;;;;1.30;1.30;;;;;;;-2.70;61.44;98797.77;1693893;83;22243;-72
2022/01/18 05:31:09;;;;;;;1.40;1.40;;;;;;;-2.69;61.28;98765.69;1699513;84;20972;-69
2022/01/18 05:33:35;;;;;;;3.17;1.60;;;;;;;-2.71;61.26;98789.55;1699467;84;21027;-71
2022/01/18 05:36:02;;;;;;;1.60;1.40;;;;;;;-2.69;61.46;98828.84;1631850;84;21618;-70
2022/01/18 05:38:31;;;;;;;1.30;1.20;;;;;;;-2.67;61.98;98779.45;1707109;82;20966;-69
2022/01/18 05:40:56;;;;;;;4.43;1.13;;;;;;;-2.69;61.88;98802.03;1705441;84;21019;-72
2022/01/18 05:43:23;;;;;;;2.80;1.40;;;;;;;-2.75;62.22;98776.95;1705320;84;21132;-71
2022/01/18 05:45:49;;;;;;;1.33;1.30;;;;;;;-2.76;62.44;98795.05;1705435;84;21603;-69
2022/01/18 05:48:15;;;;;;;4.47;1.50;;;;;;;-2.82;62.55;98787.90;1712561;83;21051;-71
2022/01/18 05:50:42;;;;;;;1.60;1.50;;;;;;;-2.79;63.10;98808.59;1757117;81;21020;-69
2022/01/18 05:53:08;;;;;;;1.27;1.27;;;;;;;-2.82;63.09;98820.28;1761375;81;21055;-69
2022/01/18 05:55:34;;;;;;;1.60;1.50;;;;;;;-2.82;63.17;98828.17;1735367;81;21575;-69
2022/01/18 05:58:00;;;;;;;3.23;1.70;;;;;;;-2.83;63.30;98836.28;1750222;81;21109;-71
2022/01/18 06:00:28;;;;;;;1.63;1.40;;;;;;;-2.87;63.12;98802.92;1748206;81;21012;-70
2022/01/18 06:08:09;;;;;;;1.57;1.47;;;;;;;-2.80;63.31;98839.34;1734698;81;21508;-73
2022/01/18 06:10:35;;;;;;;1.57;1.47;;;;;;;-2.77;63.24;98873.66;1731444;81;21965;-72
2022/01/18 06:13:03;;;;;;;1.60;1.50;;;;;;;-2.77;63.28;98841.59;1732564;82;20980;-73
2022/01/18 06:15:30;;;;;;;1.50;1.40;;;;;;;-2.81;63.57;98848.23;1745990;82;21502;-73
2022/01/18 06:17:58;;;;;;;2.00;1.70;;;;;;;-2.81;63.88;98860.07;1735926;80;21570;-74
2022/01/18 06:20:24;;;;;;;3.57;1.60;;;;;;;-2.79;63.67;98849.38;1701088;84;21062;-74
2022/01/18 06:22:51;;;;;;;2.00;1.80;;;;;;;-2.80;63.29;98855.13;1736319;81;21136;-72
2022/01/18 06:25:19;;;;;;;4.53;2.13;;;;;;;-2.79;63.40;98852.82;1745927;80;20944;-71
2022/01/18 06:27:46;;;;;;;1.47;1.37;;;;;;;-2.79;62.73;98884.89;1773763;80;21071;-74
2022/01/18 06:30:12;;;;;;;1.80;1.70;;;;;;;-2.83;62.50;98896.26;1725373;82;21047;-69
2022/01/18 06:32:40;;;;;;;1.97;1.87;;;;;;;-2.83;63.13;98863.38;1726459;81;21031;-73
2022/01/18 06:35:08;;;;;;;1.50;1.40;;;;;;;-2.80;63.18;98861.70;1735202;81;21144;-69
2022/01/18 06:37:35;;;;;;;1.63;1.53;;;;;;;-2.81;63.07;98878.48;1742586;81;21002;-71
2022/01/18 06:40:03;;;;;;;1.63;1.50;;;;;;;-2.77;63.08;98881.55;1703131;83;21047;-71
2022/01/18 06:42:31;;;;;;;1.70;1.60;;;;;;;-2.76;63.02;98873.48;1704261;81;21074;-72
2022/01/18 06:44:57;;;;;;;1.53;1.43;;;;;;;-2.74;62.81;98853.58;1730755;82;21032;-73
2022/01/18 06:47:23;;;;;;;1.30;1.30;;;;;;;-2.75;62.27;98901.94;1743230;82;21153;-73
2022/01/18 06:49:50;;;;;;;2.10;2.00;;;;;;;-2.76;62.34;98880.56;1772366;80;21039;-72
2022/01/18 06:52:16;;;;;;;1.97;1.83;;;;;;;-2.78;63.05;98882.05;1746995;82;21038;-73
2022/01/18 06:54:43;;;;;;;2.40;1.53;;;;;;;-2.81;62.67;98906.11;1736105;81;21032;-72
2022/01/18 06:57:09;;;;;;;2.20;1.40;;;;;;;-2.79;62.34;98872.55;1703693;82;21133;-70
2022/01/18 06:59:35;;;;;;;1.80;1.70;;;;;;;-2.78;62.15;98887.31;1715975;82;21264;-71
2022/01/18 07:02:03;;;;;;;2.03;1.57;;;;;;;-2.77;62.46;98898.16;1740413;81;20924;-70
2022/01/18 07:04:29;;;;;;;1.70;1.60;;;;;;;-2.75;62.30;98926.44;1709243;81;21542;-71
2022/01/18 07:06:56;;;;;;;2.10;1.43;;;;;;;-2.73;62.31;98910.44;1738234;81;21057;-71
2022/01/18 07:09:23;;;;;;;1.60;1.50;;;;;;;-2.73;61.85;98913.07;1703607;82;20951;-77
2022/01/18 07:11:51;;;;;;;1.70;1.60;;;;;;;-2.71;61.48;98922.92;1737697;81;21092;-72
2022/01/18 07:14:18;;;;;;;4.97;1.90;;;;;;;-2.70;61.59;98899.56;1729012;83;21038;-72
2022/01/18 07:16:44;;;;;;;3.10;2.10;;;;;;;-2.67;61.36;98934.72;1757437;80;21020;-71
2022/01/18 07:19:12;;;;;;;2.83;2.27;;;;;;;-2.67;61.42;98930.77;1733033;81;21026;-71
2022/01/18 07:21:39;;;;;;;2.87;2.27;;;;;;;-2.67;61.47;98925.50;1731067;81;21590;-71
2022/01/18 07:24:16;;;;;;;1.80;1.70;;;;;;;-2.64;61.42;98931.73;1703153;83;22143;-69
2022/01/18 07:26:35;;;;;;;1.40;1.40;;;;;;;-2.61;61.15;98934.48;1686547;82;21579;-68
2022/01/18 07:29:01;;;;;;;2.57;2.20;;;;;;;-2.58;60.86;98940.68;1729819;81;21636;-69
2022/01/18 07:31:29;;;;;;;2.97;2.17;;;;;;;-2.54;60.95;98965.13;1740709;81;21055;-68
2022/01/18 07:33:55;;;;;;;2.67;2.20;;;;;;;-2.50;60.62;98963.80;1752695;80;21636;-71
2022/01/18 07:36:21;;;;;;;3.07;1.73;;;;;;;-2.47;60.65;98962.09;1663783;85;21873;-71
2022/01/18 07:38:48;;;;;;;3.67;3.07;;;;;;;-2.46;60.61;98973.45;1648486;85;21539;-71
2022/01/18 07:41:14;;;;;;;2.60;2.40;;;;;;;-2.44;60.94;98974.05;1652251;85;21536;-68
2022/01/18 07:43:41;;;;;;;2.47;2.10;;;;;;;-2.53;60.71;98969.41;1709509;83;21078;-71
2022/01/18 07:46:08;;;;;;;2.90;2.20;;;;;;;-2.54;61.15;99005.14;1631256;86;21154;-72
2022/01/18 07:48:35;;;;;;;1.90;1.70;;;;;;;-2.50;61.41;99011.67;1675648;84;21258;-72
2022/01/18 07:51:01;;;;;;;3.67;2.30;;;;;;;-2.49;61.15;99008.02;1682271;83;20987;-73
2022/01/18 07:53:27;;;;;;;3.03;2.00;;;;;;;-2.52;60.35;99033.39;1704878;83;21072;-72
2022/01/18 07:55:54;;;;;;;2.10;1.90;;;;;;;-2.51;59.78;99035.03;1712918;83;21093;-72
2022/01/18 07:58:20;;;;;;;2.73;2.10;;;;;;;-2.49;60.03;99025.94;1697058;83;21058;-71
2022/01/18 08:00:49;;;;;;;1.73;1.60;;;;;;;-2.46;59.63;99053.23;1663529;86;21149;-75
2022/01/18 08:03:16;;;;;;;2.20;2.00;;;;;;;-2.40;59.26;99068.81;1702679;83;21049;-73
2022/01/18 08:05:42;;;;;;;1.80;1.70;;;;;;;-2.37;58.92;99040.79;1660678;85;21625;-70
2022/01/18 08:08:10;;;;;;;4.90;2.93;;;;;;;-2.35;58.83;99035.64;1682575;85;21567;-73
2022/01/18 08:10:39;;;;;;;3.50;2.37;;;;;;;-2.38;58.40;99054.45;1682422;85;21073;-74
2022/01/18 08:13:06;;;;;;;7.63;4.27;;;;;;;-2.33;58.53;99049.95;1699596;83;21198;-74
2022/01/18 08:15:39;;;;;;;3.20;2.20;;;;;;;-2.29;58.14;99045.45;1711092;83;21028;-71
2022/01/18 08:18:14;;;;;;;5.03;2.83;;;;;;;-2.24;58.42;99076.00;1711754;83;21072;-72
2022/01/18 08:20:41;;;;;;;9.60;3.13;;;;;;;-2.23;58.01;99059.70;1711100;82;21095;-72
2022/01/18 08:23:07;;;;;;;4.90;1.80;;;;;;;-2.22;57.98;99077.15;1710638;82;21031;-72
2022/01/18 08:25:35;;;;;;;6.30;2.37;;;;;;;-2.17;57.67;99102.44;1631110;87;21888;-71
2022/01/18 08:28:02;;;;;;;3.27;2.50;;;;;;;-2.23;57.48;99078.14;1718405;82;20968;-71
2022/01/18 08:30:28;;;;;;;3.57;1.97;;;;;;;-2.22;57.65;99088.50;1728215;82;21039;-72
2022/01/18 08:32:55;;;;;;;2.60;1.83;;;;;;;-2.23;57.26;99116.33;1701408;83;21575;-71
2022/01/18 08:35:23;;;;;;;2.53;2.07;;;;;;;-2.22;57.56;99148.26;1717845;83;21099;-73
2022/01/18 08:37:50;;;;;;;5.63;4.13;;;;;;;-2.28;57.09;99090.55;1733192;81;22137;-75
2022/01/18 08:40:17;;;;;;;7.20;1.77;;;;;;;-2.26;56.72;99081.97;1710531;82;21083;-80
2022/01/18 08:42:44;;;;;;;4.37;1.67;;;;;;;-2.22;56.43;99097.72;1728719;82;21378;-80
2022/01/18 08:45:10;;;;;;;9.83;4.07;;;;;;;-2.15;56.79;99109.64;1734505;81;21555;-84
2022/01/18 08:47:37;;;;;;;3.57;2.30;;;;;;;-2.11;56.18;99096.95;1766940;81;21093;-75
2022/01/18 08:50:04;;;;;;;4.50;2.80;;;;;;;-2.17;55.61;99116.10;1751478;81;21469;-74
2022/01/18 08:52:31;;;;;;;2.57;2.03;;;;;;;-2.15;55.86;99117.55;1728976;81;21041;-78
2022/01/18 08:54:57;;;;;;;4.03;2.60;;;;;;;-2.14;55.68;99144.20;1749491;81;21086;-74
2022/01/18 08:57:24;;;;;;;5.67;2.20;;;;;;;-2.15;55.09;99089.89;1749235;81;21110;-76
2022/01/18 08:59:52;;;;;;;2.17;1.97;;;;;;;-2.23;55.13;99146.12;1748826;81;21078;-77
2022/01/18 09:02:19;;;;;;;3.63;2.93;;;;;;;-2.26;55.00;99126.74;1739841;81;21030;-74
2022/01/18 09:04:46;;;;;;;4.17;1.90;;;;;;;-2.27;55.20;99144.03;1719344;82;21580;-78
2022/01/18 09:07:12;;;;;;;4.10;2.40;;;;;;;-2.26;55.09;99124.11;1733703;82;20960;-79
2022/01/18 09:09:41;;;;;;;4.67;2.40;;;;;;;-2.22;54.99;99178.55;1738194;81;21055;-75
2022/01/18 09:12:11;;;;;;;2.93;2.67;;;;;;;-2.18;54.92;99177.18;1740342;81;20963;-72
2022/01/18 09:14:39;;;;;;;1.77;1.53;;;;;;;-2.13;54.98;99260.43;1743521;81;21075;-76
2022/01/18 09:17:06;;;;;;;1.67;1.53;;;;;;;-2.12;54.33;99154.57;1743400;81;21553;-74
2022/01/18 09:19:33;;;;;;;1.60;1.50;;;;;;;-2.13;54.41;99149.80;1755470;81;21001;-79
2022/01/18 09:22:00;;;;;;;1.93;1.73;;;;;;;-2.12;54.41;99147.98;1631629;84;21019;-76
2022/01/18 09:24:26;;;;;;;5.17;2.80;;;;;;;-2.16;54.85;99129.09;1703952;84;21083;-77
2022/01/18 09:26:53;;;;;;;1.70;1.60;;;;;;;-2.13;55.26;99153.75;1730493;83;21978;-72
2022/01/18 09:29:20;;;;;;;1.50;1.40;;;;;;;-2.10;53.99;99111.72;1737523;81;21091;-78
2022/01/18 09:31:47;;;;;;;2.80;2.00;;;;;;;-2.11;54.12;99182.02;1733069;81;21047;-77
2022/01/18 09:34:15;;;;;;;7.73;2.70;;;;;;;-2.15;53.82;99172.03;1703905;81;21173;-77
2022/01/18 09:36:42;;;;;;;1.93;1.77;;;;;;;-2.23;54.36;99174.27;1739115;81;21123;-77
2022/01/18 09:39:09;;;;;;;2.20;2.00;;;;;;;-2.26;54.64;99254.47;1732467;82;21765;-77
2022/01/18 09:41:39;;;;;;;3.90;3.03;;;;;;;-2.25;54.95;99165.72;1712041;83;21570;-78
2022/01/18 09:44:04;;;;;;;3.07;1.93;;;;;;;-2.21;55.00;99174.39;1712037;83;21525;-77
2022/01/18 09:46:32;;;;;;;2.40;1.90;;;;;;;-2.18;54.84;99183.77;1666867;83;21026;-75
2022/01/18 09:49:00;;;;;;;2.37;1.80;;;;;;;-2.14;55.04;99174.98;1711076;82;21712;-78
2022/01/18 09:51:28;;;;;;;1.63;1.53;;;;;;;-2.08;54.82;99176.91;1715049;82;21081;-79
2022/01/18 09:53:56;;;;;;;3.53;2.47;;;;;;;-2.04;54.75;99146.56;1711033;83;21050;-78
2022/01/18 09:56:24;;;;;;;3.93;1.97;;;;;;;-2.07;55.14;99178.05;1692767;82;21616;-75
2022/01/18 09:58:52;;;;;;;2.67;1.40;;;;;;;-2.00;55.07;99253.21;1727168;82;23232;-79
2022/01/18 10:01:19;;;;;;;2.87;2.37;;;;;;;-1.98;54.60;99210.39;1690875;83;21496;-74
2022/01/18 10:03:47;;;;;;;1.80;1.70;;;;;;;-1.94;54.95;99207.21;1699352;83;21186;-72
2022/01/18 10:06:13;;;;;;;3.47;2.27;;;;;;;-1.87;54.83;99194.92;1689468;83;21082;-76
2022/01/18 10:08:42;;;;;;;1.80;1.53;;;;;;;-1.94;53.95;99227.47;1667071;83;20974;-75
2022/01/18 10:11:16;;;;;;;4.50;2.67;;;;;;;-1.93;54.37;99191.73;1712110;82;21069;-76
2022/01/18 10:13:49;;;;;;;3.10;1.70;;;;;;;-2.06;54.01;99211.28;1711975;83;20991;-77
2022/01/18 10:16:23;;;;;;;3.37;2.58;;;;;;;-2.03;54.14;99220.66;1708879;82;21807;-76
2022/01/18 10:19:01;;;;;;;2.07;1.87;;;;;;;-1.99;54.63;99223.23;1688243;83;20999;-83
2022/01/18 10:21:35;;;;;;;2.00;1.47;;;;;;;-2.00;54.34;99242.67;1714243;82;21490;-76
2022/01/18 10:24:25;;;;;;;2.00;1.73;;;;;;;-1.96;53.82;99230.27;1698267;83;20992;-75
2022/01/18 10:26:56;;;;;;;2.10;1.63;;;;;;;-1.94;53.82;99233.56;1709975;82;21600;-72
2022/01/18 10:29:37;;;;;;;2.37;2.10;;;;;;;-1.93;54.16;99218.08;1684856;83;21063;-81
2022/01/18 10:32:18;;;;;;;1.20;1.20;;;;;;;-1.88;53.74;99274.19;1652164;86;21037;-76
2022/01/18 10:37:19;;;;;;;5.17;2.80;;;;;;;-1.79;54.14;99250.70;1672699;84;21594;-79
2022/01/18 10:39:56;;;;;;;1.47;1.37;;;;;;;-1.77;53.86;99250.81;1716660;82;21021;-74
2022/01/18 10:42:39;;;;;;;5.07;2.33;;;;;;;-1.72;53.93;99250.77;1651634;84;21051;-88
2022/01/18 10:45:28;;;;;;;1.93;1.30;;;;;;;-1.70;53.89;99283.87;1663957;84;21634;-88
2022/01/18 10:48:00;;;;;;;1.80;1.17;;;;;;;-1.74;54.09;99273.38;1731102;82;21362;-78
2022/01/18 10:50:35;;;;;;;2.13;1.70;;;;;;;-1.78;53.96;99297.97;1729076;82;21067;-79
2022/01/18 10:53:16;;;;;;;1.40;1.30;;;;;;;-1.74;54.01;99272.55;1692776;82;21572;-80
2022/01/18 10:55:45;;;;;;;3.73;2.20;;;;;;;-1.74;54.24;99305.50;1678075;84;21323;-74
2022/01/18 10:58:19;;;;;;;1.60;1.43;;;;;;;-1.75;54.29;99269.09;1734067;81;21003;-76
2022/01/18 11:00:46;;;;;;;2.10;1.17;;;;;;;-1.69;54.55;99272.33;1745260;81;21531;-74
2022/01/18 11:03:12;;;;;;;2.57;2.17;;;;;;;-1.66;53.87;99289.59;1760403;81;21523;-75
2022/01/18 11:05:41;;;;;;;2.90;2.20;;;;;;;-1.69;54.17;99321.59;1735102;81;21083;-76
2022/01/18 11:08:08;;;;;;;1.70;1.60;;;;;;;-1.70;54.17;99292.28;1734963;81;21890;-77
2022/01/18 11:10:38;;;;;;;1.80;1.47;;;;;;;-1.76;54.48;99299.08;1730330;82;20988;-90
2022/01/18 11:13:10;;;;;;;1.40;1.30;;;;;;;-1.84;54.94;99257.83;1730088;81;21582;-83
2022/01/18 11:15:42;;;;;;;1.57;1.47;;;;;;;-1.88;55.14;99291.31;1706249;82;21023;-87
2022/01/18 11:18:25;;;;;;;1.80;1.70;;;;;;;-1.94;55.50;99323.64;1676457;83;21584;-84
2022/01/18 11:20:47;;;;;;;1.57;1.47;;;;;;;-1.93;56.04;99322.66;1713576;82;21177;-78
2022/01/18 11:23:15;;;;;;;1.73;1.63;;;;;;;-1.93;56.32;99304.20;1740524;81;21099;-85
2022/01/18 11:25:41;;;;;;;2.57;2.40;;;;;;;-1.90;56.56;99308.61;1712937;82;21090;-82
2022/01/18 11:28:10;;;;;;;2.83;1.60;;;;;;;-1.86;56.85;99320.43;1733704;81;21058;-74
2022/01/18 11:30:39;;;;;;;2.90;2.00;;;;;;;-1.86;57.05;99315.16;1755387;80;21579;-81
2022/01/18 11:33:13;;;;;;;2.17;1.53;;;;;;;-1.80;57.21;99321.04;1740998;81;21141;-79
2022/01/18 11:36:05;;;;;;;1.70;1.33;;;;;;;-1.82;57.23;99332.25;1729550;81;20998;-77
2022/01/18 11:38:39;;;;;;;1.57;1.43;;;;;;;-1.86;57.12;99359.14;1743530;80;21663;-77
2022/01/18 11:41:06;;;;;;;3.17;1.73;;;;;;;-1.89;57.68;99324.75;1711259;83;21085;-80
2022/01/18 11:43:40;;;;;;;1.90;1.70;;;;;;;-1.89;57.98;99334.47;1702459;83;21059;-80
2022/01/18 11:46:30;;;;;;;2.08;1.87;;;;;;;-1.85;57.90;99326.52;1704826;83;21547;-84
2022/01/18 11:49:06;;;;;;;1.50;1.40;;;;;;;-1.84;57.88;99346.61;1708264;82;21263;-81
2022/01/18 11:51:49;;;;;;;1.77;1.67;;;;;;;-1.84;57.71;99397.51;1709474;83;21095;-83
2022/01/18 11:54:44;;;;;;;2.67;2.07;;;;;;;-1.85;57.82;99370.00;1712923;82;47066;-76
2022/01/18 11:57:27;;;;;;;1.50;1.40;;;;;;;-1.90;58.17;99369.22;1712690;82;21055;-80
2022/01/18 12:00:21;;;;;;;1.57;1.47;;;;;;;-1.90;58.68;99382.40;1634025;86;21795;-82
2022/01/18 12:02:52;;;;;;;4.10;1.87;;;;;;;-1.86;58.75;99378.41;1689047;83;21022;-78
2022/01/18 12:05:21;;;;;;;2.57;1.93;;;;;;;-1.85;58.49;99401.63;1712825;83;21103;-78
2022/01/18 12:08:01;;;;;;;1.70;1.60;;;;;;;-1.83;57.95;99388.61;1712362;83;21414;-83
2022/01/18 12:10:43;;;;;;;1.57;1.40;;;;;;;-1.82;57.65;99406.53;1718054;83;21024;-86
2022/01/18 12:13:14;;;;;;;1.60;1.43;;;;;;;-1.81;57.66;99434.04;1689899;83;21280;-87
2022/01/18 12:15:47;;;;;;;;;;;;;;;-1.82;57.94;99434.20;1693228;83;21152;-83
2022/01/18 12:18:24;;;;;;;1.67;1.50;;;;;;;-1.88;58.21;99447.62;1711889;83;20480;-81
2022/01/18 12:20:53;;;;;;;1.90;1.80;;;;;;;-1.91;58.60;99437.91;1703813;83;21015;-84
2022/01/18 12:23:40;;;;;;;1.87;1.77;;;;;;;-1.90;59.33;99430.33;1686960;83;21111;-77
2022/01/18 12:34:35;;;;;;;2.47;1.90;;;;;;;-1.97;60.54;99497.92;1712745;83;20999;-77
2022/01/18 12:37:17;;;;;;;3.10;2.03;;;;;;;-1.92;60.54;99517.98;1686713;83;21413;-77
2022/01/18 12:40:08;;;;;;;3.17;2.87;;;;;;;-1.93;59.99;99521.11;1705432;82;21034;-77
2022/01/18 12:45:16;;;;;;;1.77;1.67;;;;;;;-1.85;60.10;99488.11;1733193;81;21061;-80
2022/01/18 12:47:51;;;;;;;3.10;2.10;;;;;;;-1.86;60.16;99459.28;1733440;81;28818;-80
2022/01/18 12:50:26;;;;;;;3.20;2.50;;;;;;;-1.86;60.20;99486.95;1709730;82;20955;-82
2022/01/18 12:53:05;;;;;;;2.03;1.83;;;;;;;-1.93;60.15;99488.66;1703276;81;21036;-75
2022/01/18 12:55:48;;;;;;;1.90;1.80;;;;;;;-1.91;60.19;99477.43;1737345;81;21050;-76
2022/01/18 12:58:34;;;;;;;4.80;1.47;;;;;;;-1.90;59.96;99470.68;1733031;81;21067;-78
2022/01/18 13:01:15;;;;;;;1.60;1.50;;;;;;;-1.89;59.67;99480.23;1757732;79;21408;-78
2022/01/18 13:03:47;;;;;;;1.77;1.63;;;;;;;-1.84;60.00;99493.70;1709126;81;22212;-76
2022/01/18 13:06:17;;;;;;;2.63;1.73;;;;;;;-1.84;59.32;99517.92;1735083;81;21169;-75